createdAt,value
2017-10-22T00:00:08.576Z,93.41
2017-10-22T00:01:08.555Z,93.55
2017-10-22T00:02:08.520Z,93.7
2017-10-22T00:03:08.500Z,93.36
2017-10-22T00:04:08.475Z,93.12
2017-10-22T00:05:08.451Z,93.32
2017-10-22T00:06:08.435Z,93.22
2017-10-22T00:07:08.402Z,93.32
2017-10-22T00:08:08.388Z,93.32
2017-10-22T00:09:08.357Z,93.12
2017-10-22T00:10:08.336Z,93.32
2017-10-22T00:11:08.324Z,93.51
2017-10-22T00:12:08.287Z,93.51
2017-10-22T00:13:08.266Z,93.41
2017-10-22T00:14:07.925Z,93.32
2017-10-22T00:15:08.227Z,93.51
2017-10-22T00:16:08.203Z,93.51
2017-10-22T00:17:08.184Z,93.22
2017-10-22T00:18:08.146Z,93.32
2017-10-22T00:19:07.825Z,93.32
2017-10-22T00:20:08.113Z,93.32
2017-10-22T00:21:08.080Z,93.41
2017-10-22T00:22:08.080Z,93.41
2017-10-22T00:23:08.039Z,93.32
2017-10-22T00:24:08.033Z,93.41
2017-10-22T00:25:07.992Z,93.03
2017-10-22T00:26:07.969Z,93.22
2017-10-22T00:27:07.941Z,93.12
2017-10-22T00:28:07.918Z,93.32
2017-10-22T00:29:07.893Z,93.12
2017-10-22T00:30:07.877Z,93.41
2017-10-22T00:31:07.856Z,93.32
2017-10-22T00:32:07.829Z,93.22
2017-10-22T00:33:07.802Z,93.32
2017-10-22T00:34:07.780Z,93.32
2017-10-22T00:35:07.774Z,93.32
2017-10-22T00:36:07.732Z,93.32
2017-10-22T00:37:07.709Z,93.41
2017-10-22T00:38:07.691Z,93.22
2017-10-22T00:39:07.343Z,93.41
2017-10-22T00:40:07.644Z,93.32
2017-10-22T00:41:07.629Z,93.41
2017-10-22T00:42:07.599Z,93.41
2017-10-22T00:43:07.569Z,93.32
2017-10-22T00:44:07.546Z,93.22
2017-10-22T00:45:07.536Z,93.51
2017-10-22T00:46:07.504Z,93.12
2017-10-22T00:47:07.476Z,93.51
2017-10-22T00:48:07.466Z,93.41
2017-10-22T00:49:07.430Z,93.22
2017-10-22T00:50:07.409Z,93.12
2017-10-22T00:51:07.379Z,93.12
2017-10-22T00:52:07.361Z,93.41
2017-10-22T00:53:07.341Z,93.51
2017-10-22T00:54:06.998Z,93.41
2017-10-22T00:55:07.292Z,93.32
2017-10-22T00:56:07.271Z,93.41
2017-10-22T00:57:07.246Z,93.03
2017-10-22T00:58:07.224Z,93.12
2017-10-22T00:59:07.204Z,93.12
2017-10-22T01:00:07.186Z,93.12
2017-10-22T01:01:07.150Z,93.03
2017-10-22T01:02:07.128Z,93.88
2017-10-22T01:03:07.115Z,93.08
2017-10-22T01:04:07.084Z,93.88
2017-10-22T01:05:07.061Z,93.12
2017-10-22T01:06:07.041Z,93.12
2017-10-22T01:07:07.021Z,93.6
2017-10-22T01:08:06.990Z,93.88
2017-10-22T01:09:06.971Z,93.79
2017-10-22T01:10:06.954Z,93.88
2017-10-22T01:11:06.938Z,93.22
2017-10-22T01:12:06.901Z,93.98
2017-10-22T01:13:06.875Z,93.41
2017-10-22T01:14:06.856Z,93.88
2017-10-22T01:15:06.507Z,93.98
2017-10-22T01:16:06.799Z,93.74
2017-10-22T01:17:06.779Z,93.51
2017-10-22T01:18:06.436Z,93.51
2017-10-22T01:19:06.754Z,93.27
2017-10-22T01:20:06.710Z,94.08
2017-10-22T01:21:06.693Z,93.51
2017-10-22T01:22:06.665Z,93.51
2017-10-22T01:23:06.647Z,94.08
2017-10-22T01:24:06.618Z,93.65
2017-10-22T01:25:06.603Z,93.55
2017-10-22T01:26:06.575Z,94.27
2017-10-22T01:27:06.546Z,93.65
2017-10-22T01:28:06.525Z,93.6
2017-10-22T01:29:06.499Z,94.22
2017-10-22T01:30:06.480Z,94.22
2017-10-22T01:31:06.467Z,94.27
2017-10-22T01:32:06.780Z,94.37
2017-10-22T01:33:06.406Z,94.41
2017-10-22T01:34:06.385Z,94.41
2017-10-22T01:35:06.354Z,93.6
2017-10-22T01:36:06.342Z,94.27
2017-10-22T01:37:06.317Z,94.46
2017-10-22T01:38:06.294Z,93.98
2017-10-22T01:39:06.259Z,94.13
2017-10-22T01:40:06.246Z,94.22
2017-10-22T01:41:06.225Z,94.41
2017-10-22T01:42:06.194Z,94.22
2017-10-22T01:43:06.172Z,94.27
2017-10-22T01:44:06.148Z,93.7
2017-10-22T01:45:06.124Z,94.13
2017-10-22T01:46:06.099Z,94.13
2017-10-22T01:47:06.076Z,94.41
2017-10-22T01:48:06.056Z,94.08
2017-10-22T01:49:06.035Z,94.13
2017-10-22T01:50:06.008Z,94.22
2017-10-22T01:51:05.987Z,94.32
2017-10-22T01:52:05.962Z,94.32
2017-10-22T01:53:05.935Z,94.13
2017-10-22T01:54:05.917Z,94.22
2017-10-22T01:55:05.907Z,94.32
2017-10-22T01:56:05.875Z,94.22
2017-10-22T01:57:05.849Z,94.32
2017-10-22T01:58:05.821Z,94.22
2017-10-22T01:59:05.811Z,94.41
2017-10-22T02:00:05.778Z,94.32
2017-10-22T02:01:05.757Z,94.32
2017-10-22T02:02:05.728Z,94.32
2017-10-22T02:03:05.705Z,94.32
2017-10-22T02:04:05.691Z,94.22
2017-10-22T02:05:05.663Z,94.13
2017-10-22T02:06:05.633Z,94.22
2017-10-22T02:07:05.614Z,94.13
2017-10-22T02:08:05.592Z,94.13
2017-10-22T02:09:05.573Z,94.51
2017-10-22T02:10:05.553Z,94.41
2017-10-22T02:11:05.521Z,94.51
2017-10-22T02:12:05.495Z,94.41
2017-10-22T02:13:05.470Z,94.22
2017-10-22T02:14:05.454Z,94.22
2017-10-22T02:15:05.432Z,94.22
2017-10-22T02:16:05.407Z,93.46
2017-10-22T02:17:05.376Z,94.22
2017-10-22T02:18:05.353Z,94.51
2017-10-22T02:19:05.331Z,94.32
2017-10-22T02:20:05.307Z,94.32
2017-10-22T02:21:05.290Z,94.41
2017-10-22T02:22:05.264Z,94.6
2017-10-22T02:23:05.250Z,94.51
2017-10-22T02:24:05.214Z,94.22
2017-10-22T02:25:04.876Z,94.51
2017-10-22T02:26:04.847Z,94.22
2017-10-22T02:27:05.148Z,94.22
2017-10-22T02:28:05.121Z,94.22
2017-10-22T02:29:05.103Z,94.51
2017-10-22T02:30:05.078Z,94.22
2017-10-22T02:31:05.061Z,94.22
2017-10-22T02:32:05.033Z,94.13
2017-10-22T02:33:05.006Z,94.32
2017-10-22T02:34:04.979Z,94.13
2017-10-22T02:35:04.960Z,94.22
2017-10-22T02:36:04.939Z,94.22
2017-10-22T02:37:04.911Z,94.22
2017-10-22T02:38:04.887Z,94.22
2017-10-22T02:39:04.870Z,94.51
2017-10-22T02:40:04.840Z,94.32
2017-10-22T02:41:04.814Z,94.22
2017-10-22T02:42:04.795Z,94.32
2017-10-22T02:43:04.766Z,94.32
2017-10-22T02:44:04.747Z,94.41
2017-10-22T02:45:04.719Z,94.32
2017-10-22T02:46:04.378Z,94.32
2017-10-22T02:47:04.675Z,94.41
2017-10-22T02:48:04.332Z,94.32
2017-10-22T02:49:04.644Z,94.32
2017-10-22T02:50:04.608Z,94.41
2017-10-22T02:51:04.581Z,94.13
2017-10-22T02:52:04.558Z,94.32
2017-10-22T02:53:04.531Z,94.32
2017-10-22T02:54:04.515Z,94.6
2017-10-22T02:55:04.495Z,94.32
2017-10-22T02:56:04.464Z,93.7
2017-10-22T02:57:04.122Z,93.7
2017-10-22T02:58:04.415Z,93.55
2017-10-22T02:59:04.407Z,93.79
2017-10-22T03:00:04.394Z,93.32
2017-10-22T03:01:04.966Z,93.7
2017-10-22T03:02:04.323Z,93.51
2017-10-22T03:03:04.306Z,93.79
2017-10-22T03:04:04.300Z,93.22
2017-10-22T03:05:04.259Z,93.22
2017-10-22T03:06:04.242Z,93.6
2017-10-22T03:07:04.212Z,93.88
2017-10-22T03:08:04.189Z,93.41
2017-10-22T03:09:04.162Z,93.41
2017-10-22T03:10:04.141Z,93.7
2017-10-22T03:11:04.127Z,93.7
2017-10-22T03:12:04.088Z,93.7
2017-10-22T03:13:04.088Z,93.6
2017-10-22T03:14:04.050Z,93.6
2017-10-22T03:15:04.023Z,93.51
2017-10-22T03:16:03.997Z,93.79
2017-10-22T03:17:03.977Z,93.51
2017-10-22T03:18:03.953Z,93.51
2017-10-22T03:19:03.928Z,93.88
2017-10-22T03:20:03.906Z,93.88
2017-10-22T03:21:03.909Z,93.88
2017-10-22T03:22:03.859Z,93.79
2017-10-22T03:23:03.842Z,93.7
2017-10-22T03:24:03.809Z,93.79
2017-10-22T03:25:03.791Z,93.98
2017-10-22T03:26:03.769Z,93.88
2017-10-22T03:27:03.742Z,93.51
2017-10-22T03:28:04.069Z,93.79
2017-10-22T03:29:03.697Z,94.17
2017-10-22T03:30:03.684Z,93.88
2017-10-22T03:31:03.656Z,93.88
2017-10-22T03:32:03.632Z,94.17
2017-10-22T03:33:03.604Z,93.98
2017-10-22T03:34:03.582Z,94.12
2017-10-22T03:35:03.560Z,93.84
2017-10-22T03:36:03.530Z,93.7
2017-10-22T03:37:03.511Z,93.27
2017-10-22T03:38:03.491Z,93.27
2017-10-22T03:39:03.467Z,93.74
2017-10-22T03:40:03.443Z,93.27
2017-10-22T03:41:03.420Z,93.74
2017-10-22T03:42:03.397Z,94.22
2017-10-22T03:43:03.371Z,93.7
2017-10-22T03:44:03.349Z,93.55
2017-10-22T03:45:03.322Z,93.74
2017-10-22T03:46:03.311Z,93.55
2017-10-22T03:47:03.283Z,93.65
2017-10-22T03:48:03.259Z,93.74
2017-10-22T03:49:03.236Z,93.74
2017-10-22T03:50:03.214Z,93.65
2017-10-22T03:51:03.193Z,93.46
2017-10-22T03:52:03.164Z,93.46
2017-10-22T03:53:03.157Z,93.74
2017-10-22T03:54:03.124Z,93.55
2017-10-22T03:55:03.095Z,93.65
2017-10-22T03:56:03.073Z,93.84
2017-10-22T03:57:03.050Z,93.27
2017-10-22T03:58:03.031Z,93.51
2017-10-22T03:59:03.009Z,93.32
2017-10-22T04:00:02.978Z,93.51
2017-10-22T04:01:02.957Z,93.7
2017-10-22T04:02:02.936Z,93.7
2017-10-22T04:03:02.912Z,93.55
2017-10-22T04:04:02.889Z,93.7
2017-10-22T04:05:02.868Z,93.12
2017-10-22T04:06:02.840Z,93.22
2017-10-22T04:07:02.821Z,93.7
2017-10-22T04:08:02.799Z,93.36
2017-10-22T04:09:02.773Z,93.17
2017-10-22T04:10:02.743Z,93.36
2017-10-22T04:11:02.729Z,93.32
2017-10-22T04:12:02.702Z,93.79
2017-10-22T04:13:02.699Z,93.65
2017-10-22T04:14:02.657Z,93.32
2017-10-22T04:15:02.635Z,93.79
2017-10-22T04:16:02.614Z,93.51
2017-10-22T04:17:02.589Z,93.74
2017-10-22T04:18:02.568Z,93.36
2017-10-22T04:19:02.539Z,93.55
2017-10-22T04:20:02.516Z,93.36
2017-10-22T04:21:02.495Z,93.65
2017-10-22T04:22:02.469Z,93.93
2017-10-22T04:23:02.452Z,93.36
2017-10-22T04:24:02.423Z,93.7
2017-10-22T04:25:02.403Z,93.32
2017-10-22T04:26:02.380Z,93.32
2017-10-22T04:27:02.353Z,93.51
2017-10-22T04:28:02.336Z,93.7
2017-10-22T04:29:02.314Z,93.46
2017-10-22T04:30:02.287Z,93.32
2017-10-22T04:31:02.260Z,93.36
2017-10-22T04:32:02.243Z,93.51
2017-10-22T04:33:02.215Z,93.51
2017-10-22T04:34:02.192Z,93.41
2017-10-22T04:35:02.169Z,93.6
2017-10-22T04:36:02.147Z,93.55
2017-10-22T04:37:02.123Z,93.51
2017-10-22T04:38:02.110Z,93.22
2017-10-22T04:39:02.077Z,93.51
2017-10-22T04:40:02.056Z,93.51
2017-10-22T04:41:02.029Z,93.51
2017-10-22T04:42:02.005Z,93.6
2017-10-22T04:43:01.981Z,93.22
2017-10-22T04:44:01.965Z,93.51
2017-10-22T04:45:01.935Z,93.32
2017-10-22T04:46:01.914Z,93.41
2017-10-22T04:47:01.896Z,93.6
2017-10-22T04:48:01.867Z,93.51
2017-10-22T04:49:01.842Z,93.41
2017-10-22T04:50:01.822Z,93.22
2017-10-22T04:51:01.798Z,93.41
2017-10-22T04:52:01.780Z,93.51
2017-10-22T04:53:01.749Z,93.51
2017-10-22T04:54:01.726Z,93.6
2017-10-22T04:55:01.707Z,93.6
2017-10-22T04:56:01.682Z,93.88
2017-10-22T04:57:01.666Z,93.32
2017-10-22T04:58:01.640Z,93.41
2017-10-22T04:59:01.622Z,93.51
2017-10-22T05:00:01.595Z,93.51
2017-10-22T05:01:01.568Z,93.41
2017-10-22T05:02:01.548Z,93.32
2017-10-22T05:03:01.202Z,93.51
2017-10-22T05:04:01.511Z,93.7
2017-10-22T05:05:01.474Z,93.7
2017-10-22T05:06:01.450Z,93.7
2017-10-22T05:07:01.428Z,93.32
2017-10-22T05:08:01.413Z,94.08
2017-10-22T05:09:01.392Z,93.22
2017-10-22T05:10:01.363Z,93.51
2017-10-22T05:11:01.341Z,93.32
2017-10-22T05:12:01.315Z,93.51
2017-10-22T05:13:01.290Z,93.32
2017-10-22T05:14:01.268Z,93.51
2017-10-22T05:15:01.239Z,93.17
2017-10-22T05:16:01.224Z,93.22
2017-10-22T05:17:01.198Z,93.46
2017-10-22T05:18:01.175Z,93.37
2017-10-22T05:19:01.153Z,92.98
2017-10-22T05:20:01.142Z,93.46
2017-10-22T05:21:01.102Z,93.55
2017-10-22T05:22:01.088Z,93.65
2017-10-22T05:23:01.056Z,93.46
2017-10-22T05:24:01.035Z,93.46
2017-10-22T05:25:01.041Z,93.08
2017-10-22T05:26:00.991Z,93.37
2017-10-22T05:27:00.976Z,93.46
2017-10-22T05:28:00.934Z,93.46
2017-10-22T05:29:00.915Z,93.27
2017-10-22T05:30:00.892Z,93.27
2017-10-22T05:31:00.869Z,93.08
2017-10-22T05:32:00.849Z,92.89
2017-10-22T05:33:00.822Z,92.98
2017-10-22T05:34:00.804Z,93.27
2017-10-22T05:35:00.780Z,92.79
2017-10-22T05:36:00.748Z,93.08
2017-10-22T05:37:00.723Z,92.98
2017-10-22T05:38:00.706Z,92.74
2017-10-22T05:39:00.690Z,92.69
2017-10-22T05:40:00.651Z,92.84
2017-10-22T05:41:00.627Z,92.84
2017-10-22T05:42:00.611Z,92.65
2017-10-22T05:43:00.584Z,92.84
2017-10-22T05:44:00.564Z,92.84
2017-10-22T05:45:00.216Z,93.22
2017-10-22T05:46:00.515Z,92.65
2017-10-22T05:47:00.486Z,93.13
2017-10-22T05:48:00.467Z,93.03
2017-10-22T05:49:00.439Z,93.03
2017-10-22T05:50:00.415Z,92.55
2017-10-22T05:51:00.390Z,92.55
2017-10-22T05:52:00.366Z,92.36
2017-10-22T05:53:00.359Z,93.03
2017-10-22T05:54:00.333Z,93.03
2017-10-22T05:55:00.299Z,92.79
2017-10-22T05:56:00.277Z,92.22
2017-10-22T05:57:00.252Z,92.22
2017-10-22T05:58:00.224Z,92.79
2017-10-22T05:58:59.881Z,93.08
2017-10-22T06:00:00.193Z,92.03
2017-10-22T06:01:00.164Z,92.89
2017-10-22T06:02:00.135Z,92.6
2017-10-22T06:03:00.107Z,92.22
2017-10-22T06:04:00.086Z,92.89
2017-10-22T06:05:00.063Z,92.7
2017-10-22T06:06:00.041Z,92.6
2017-10-22T06:07:00.020Z,92.6
2017-10-22T06:07:59.986Z,92.41
2017-10-22T06:08:59.645Z,92.7
2017-10-22T06:09:59.938Z,92.7
2017-10-22T06:10:59.916Z,92.51
2017-10-22T06:11:59.894Z,92.41
2017-10-22T06:12:59.865Z,92.51
2017-10-22T06:13:59.847Z,92.41
2017-10-22T06:15:00.123Z,92.41
2017-10-22T06:16:00.680Z,92.51
2017-10-22T06:16:59.892Z,92.41
2017-10-22T06:17:59.756Z,92.41
2017-10-22T06:18:59.743Z,92.6
2017-10-22T06:19:59.733Z,92.51
2017-10-22T06:20:59.943Z,92.51
2017-10-22T06:21:59.662Z,92.32
2017-10-22T06:22:59.662Z,92.41
2017-10-22T06:23:59.709Z,92.41
2017-10-22T06:24:59.619Z,92.6
2017-10-22T06:25:59.569Z,92.22
2017-10-22T06:26:59.684Z,91.94
2017-10-22T06:28:00.057Z,92.51
2017-10-22T06:28:59.644Z,92.03
2017-10-22T06:29:59.477Z,92.51
2017-10-22T06:30:59.444Z,92.22
2017-10-22T06:31:59.747Z,92.51
2017-10-22T06:32:59.467Z,91.94
2017-10-22T06:33:59.391Z,92.22
2017-10-22T06:34:59.982Z,92.03
2017-10-22T06:35:59.621Z,91.94
2017-10-22T06:36:59.292Z,92.03
2017-10-22T06:37:59.274Z,92.22
2017-10-22T06:38:59.456Z,92.13
2017-10-22T06:39:59.273Z,92.13
2017-10-22T06:40:59.504Z,92.13
2017-10-22T06:41:58.853Z,92.13
2017-10-22T06:43:59.566Z,92.6
2017-10-22T06:44:59.399Z,92.6
2017-10-22T06:45:59.079Z,91.65
2017-10-22T06:46:59.053Z,92.22
2017-10-22T06:47:59.856Z,92.41
2017-10-22T06:54:36.774Z,92.6
2017-10-22T06:55:36.786Z,92.6
2017-10-22T06:57:45.318Z,92.7
2017-10-22T09:53:26.050Z,91.69
2017-10-22T09:54:25.705Z,91.79
2017-10-22T09:55:26.002Z,91.79
2017-10-22T09:56:25.975Z,91.79
2017-10-22T09:57:25.958Z,91.79
2017-10-22T09:58:25.954Z,91.69
2017-10-22T09:59:25.916Z,91.69
2017-10-22T10:00:25.882Z,91.6
2017-10-22T10:01:25.863Z,91.69
2017-10-22T10:02:25.836Z,91.69
2017-10-22T10:03:25.817Z,91.69
2017-10-22T10:04:25.797Z,91.69
2017-10-22T10:05:25.774Z,91.79
2017-10-22T10:06:25.753Z,91.74
2017-10-22T10:07:25.724Z,91.79
2017-10-22T10:08:25.713Z,91.79
2017-10-22T10:09:25.681Z,91.69
2017-10-22T10:10:25.657Z,91.69
2017-10-22T10:11:25.982Z,92.03
2017-10-22T10:12:25.293Z,91.79
2017-10-22T10:13:25.585Z,91.79
2017-10-22T10:14:25.561Z,91.88
2017-10-22T10:15:25.539Z,91.84
2017-10-22T10:16:25.525Z,91.79
2017-10-22T10:17:25.495Z,91.94
2017-10-22T10:18:25.476Z,91.55
2017-10-22T10:19:25.447Z,91.55
2017-10-22T10:20:25.424Z,91.55
2017-10-22T10:21:25.399Z,91.74
2017-10-22T10:22:25.374Z,91.55
2017-10-22T10:23:25.367Z,91.55
2017-10-22T10:24:25.329Z,91.55
2017-10-22T10:25:25.319Z,91.65
2017-10-22T10:26:25.280Z,91.55
2017-10-22T10:27:25.265Z,91.69
2017-10-22T10:28:25.238Z,92.03
2017-10-22T10:29:25.219Z,92.22
2017-10-22T10:30:25.195Z,92.22
2017-10-22T10:31:25.169Z,92.03
2017-10-22T10:32:25.142Z,91.94
2017-10-22T10:33:25.123Z,92.03
2017-10-22T10:34:25.102Z,92.13
2017-10-22T10:35:25.073Z,91.74
2017-10-22T10:36:25.053Z,91.55
2017-10-22T10:37:25.026Z,91.74
2017-10-22T10:38:25.004Z,92.03
2017-10-22T10:39:24.986Z,91.74
2017-10-22T10:40:24.994Z,91.74
2017-10-22T10:41:24.932Z,92.13
2017-10-22T10:42:24.902Z,91.74
2017-10-22T10:43:24.885Z,91.94
2017-10-22T10:44:24.861Z,91.84
2017-10-22T10:45:24.840Z,92.03
2017-10-22T10:46:24.817Z,91.94
2017-10-22T10:47:24.796Z,91.84
2017-10-22T10:48:24.770Z,91.65
2017-10-22T10:49:24.745Z,91.84
2017-10-22T10:50:24.730Z,91.65
2017-10-22T10:51:24.703Z,92.32
2017-10-22T10:52:24.683Z,91.55
2017-10-22T10:53:24.654Z,91.74
2017-10-22T10:54:24.626Z,92.41
2017-10-22T10:55:24.604Z,92.22
2017-10-22T10:56:24.581Z,92.13
2017-10-22T10:57:24.559Z,92.13
2017-10-22T10:58:24.566Z,92.41
2017-10-22T10:59:24.510Z,92.27
2017-10-22T11:00:24.483Z,92.13
2017-10-22T11:01:24.464Z,92.13
2017-10-22T11:02:24.449Z,92.46
2017-10-22T11:03:24.419Z,92.08
2017-10-22T11:04:24.394Z,92.08
2017-10-22T11:05:24.374Z,92.03
2017-10-22T11:06:24.348Z,92.17
2017-10-22T11:07:24.330Z,92.08
2017-10-22T11:08:24.310Z,92.27
2017-10-22T11:09:24.281Z,92.17
2017-10-22T11:10:24.255Z,92.17
2017-10-22T11:11:24.234Z,92.46
2017-10-22T11:12:24.216Z,92.36
2017-10-22T11:13:24.182Z,92.08
2017-10-22T11:14:24.219Z,92.36
2017-10-22T11:15:24.145Z,92.17
2017-10-22T11:16:24.140Z,92.08
2017-10-22T11:17:24.093Z,92.17
2017-10-22T11:18:24.069Z,92.17
2017-10-22T11:19:24.047Z,92.27
2017-10-22T11:20:24.032Z,92.17
2017-10-22T11:21:24.000Z,92.17
2017-10-22T11:22:23.982Z,92.17
2017-10-22T11:23:23.960Z,91.98
2017-10-22T11:24:23.925Z,92.17
2017-10-22T11:25:23.594Z,92.17
2017-10-22T11:26:23.896Z,92.17
2017-10-22T11:27:23.543Z,91.98
2017-10-22T11:28:23.838Z,92.17
2017-10-22T11:29:23.840Z,92.17
2017-10-22T11:30:23.803Z,91.98
2017-10-22T11:31:23.771Z,92.08
2017-10-22T11:32:23.424Z,92.08
2017-10-22T11:33:23.727Z,92.08
2017-10-22T11:34:23.705Z,91.98
2017-10-22T11:35:23.694Z,91.98
2017-10-22T11:36:23.660Z,91.98
2017-10-22T11:37:23.637Z,92.08
2017-10-22T11:38:23.293Z,92.08
2017-10-22T11:39:23.586Z,91.98
2017-10-22T11:40:23.568Z,92.08
2017-10-22T11:41:23.551Z,92.08
2017-10-22T11:42:23.521Z,92.08
2017-10-22T11:43:23.491Z,92.08
2017-10-22T11:44:23.470Z,92.08
2017-10-22T11:45:23.452Z,92.17
2017-10-22T11:46:23.430Z,92.17
2017-10-22T11:47:23.414Z,91.88
2017-10-22T11:48:23.392Z,92.08
2017-10-22T11:49:23.362Z,92.17
2017-10-22T11:50:23.336Z,92.17
2017-10-22T11:51:23.311Z,92.36
2017-10-22T11:52:22.971Z,92.46
2017-10-22T11:53:23.271Z,92.36
2017-10-22T11:54:23.246Z,92.27
2017-10-22T11:55:23.222Z,92.27
2017-10-22T11:56:22.876Z,92.46
2017-10-22T11:57:23.169Z,92.17
2017-10-22T11:58:23.152Z,92.46
2017-10-22T11:59:23.133Z,92.46
2017-10-22T12:00:23.110Z,92.17
2017-10-22T12:01:23.095Z,91.98
2017-10-22T12:02:23.061Z,92.17
2017-10-22T12:03:23.053Z,91.98
2017-10-22T12:04:23.009Z,92.17
2017-10-22T12:05:22.989Z,91.98
2017-10-22T12:06:22.972Z,92.27
2017-10-22T12:07:22.936Z,91.79
2017-10-22T12:08:22.916Z,92.84
2017-10-22T12:09:22.900Z,92.55
2017-10-22T12:10:22.553Z,92.46
2017-10-22T12:11:22.857Z,92.55
2017-10-22T12:12:22.826Z,92.46
2017-10-22T12:13:22.809Z,92.55
2017-10-22T12:14:22.783Z,92.27
2017-10-22T12:15:22.767Z,92.36
2017-10-22T12:16:22.739Z,92.08
2017-10-22T12:17:22.392Z,92.5
2017-10-22T12:18:22.695Z,92.17
2017-10-22T12:19:22.667Z,92.27
2017-10-22T12:20:22.660Z,92.32
2017-10-22T12:21:22.300Z,92.22
2017-10-22T12:22:22.594Z,92.32
2017-10-22T12:23:22.572Z,92.22
2017-10-22T12:24:22.237Z,92.32
2017-10-22T12:25:22.533Z,92.5
2017-10-22T12:26:22.508Z,92.6
2017-10-22T12:27:22.488Z,92.03
2017-10-22T12:28:22.459Z,92.36
2017-10-22T12:29:22.438Z,92.26
2017-10-22T12:30:22.421Z,92.07
2017-10-22T12:31:22.394Z,91.98
2017-10-22T12:32:22.375Z,92.07
2017-10-22T12:33:22.380Z,92.07
2017-10-22T12:34:22.320Z,92.07
2017-10-22T12:35:22.311Z,91.31
2017-10-22T12:36:21.962Z,91.78
2017-10-22T12:37:22.277Z,91.31
2017-10-22T12:38:21.923Z,91.31
2017-10-22T12:39:22.217Z,91.64
2017-10-22T12:40:22.189Z,91.16
2017-10-22T12:41:22.180Z,91.26
2017-10-22T12:42:22.143Z,91.16
2017-10-22T12:43:22.123Z,91.36
2017-10-22T12:44:22.101Z,91.07
2017-10-22T12:45:22.078Z,91.26
2017-10-22T12:46:22.055Z,90.78
2017-10-22T12:47:21.715Z,90.97
2017-10-22T12:48:22.013Z,90.88
2017-10-22T12:49:21.989Z,91.07
2017-10-22T12:50:21.984Z,91.07
2017-10-22T12:51:21.949Z,90.97
2017-10-22T12:52:21.924Z,90.31
2017-10-22T12:53:21.903Z,90.21
2017-10-22T12:54:21.880Z,90.5
2017-10-22T12:55:21.878Z,90.5
2017-10-22T12:56:21.839Z,90.69
2017-10-22T12:57:21.814Z,90.78
2017-10-22T12:58:21.792Z,90.69
2017-10-22T12:59:21.769Z,90.5
2017-10-22T13:00:21.771Z,90.59
2017-10-22T13:01:21.728Z,90.69
2017-10-22T13:02:21.707Z,90.69
2017-10-22T13:03:21.679Z,90.69
2017-10-22T13:04:21.664Z,90.59
2017-10-22T13:05:21.638Z,90.88
2017-10-22T13:06:21.614Z,90.78
2017-10-22T13:07:21.601Z,90.78
2017-10-22T13:08:21.585Z,90.97
2017-10-22T13:09:21.551Z,90.78
2017-10-22T13:10:21.526Z,90.59
2017-10-22T13:11:21.519Z,90.88
2017-10-22T13:12:21.479Z,90.69
2017-10-22T13:13:21.470Z,90.88
2017-10-22T13:14:21.445Z,90.88
2017-10-22T13:15:21.415Z,90.69
2017-10-22T13:16:21.073Z,90.69
2017-10-22T13:17:21.368Z,90.88
2017-10-22T13:18:21.347Z,90.83
2017-10-22T13:19:21.331Z,91.12
2017-10-22T13:20:21.307Z,91.02
2017-10-22T13:21:21.280Z,90.93
2017-10-22T13:22:21.263Z,91.12
2017-10-22T13:23:21.238Z,90.64
2017-10-22T13:24:21.217Z,90.83
2017-10-22T13:25:21.194Z,90.83
2017-10-22T13:26:21.171Z,90.73
2017-10-22T13:27:20.827Z,90.73
2017-10-22T13:28:21.124Z,90.64
2017-10-22T13:29:21.101Z,90.64
2017-10-22T13:30:21.080Z,90.73
2017-10-22T13:31:21.056Z,90.97
2017-10-22T13:32:21.035Z,90.69
2017-10-22T13:33:21.020Z,90.97
2017-10-22T13:34:20.998Z,90.69
2017-10-22T13:35:20.987Z,90.69
2017-10-22T13:36:20.947Z,90.97
2017-10-22T13:37:20.928Z,90.78
2017-10-22T13:38:20.905Z,90.97
2017-10-22T13:39:20.895Z,90.78
2017-10-22T13:40:20.855Z,90.88
2017-10-22T13:41:20.852Z,91.16
2017-10-22T13:42:20.811Z,90.97
2017-10-22T13:43:20.794Z,91.16
2017-10-22T13:44:20.453Z,90.88
2017-10-22T13:45:20.742Z,91.16
2017-10-22T13:46:20.719Z,91.07
2017-10-22T13:47:20.703Z,90.97
2017-10-22T13:48:20.679Z,90.88
2017-10-22T13:49:20.336Z,90.88
2017-10-22T13:50:20.636Z,91.07
2017-10-22T13:51:20.626Z,91.45
2017-10-22T13:52:20.594Z,91.07
2017-10-22T13:53:20.572Z,91.07
2017-10-22T13:54:20.541Z,90.97
2017-10-22T13:55:20.520Z,90.78
2017-10-22T13:56:20.180Z,91.16
2017-10-22T13:57:20.477Z,90.88
2017-10-22T13:58:20.462Z,90.97
2017-10-22T13:59:20.111Z,91.55
2017-10-22T14:00:20.417Z,91.45
2017-10-22T14:01:20.388Z,90.93
2017-10-22T14:02:20.379Z,91.16
2017-10-22T14:03:20.343Z,91.6
2017-10-22T14:04:20.327Z,91.6
2017-10-22T14:05:20.296Z,91.41
2017-10-22T14:06:20.279Z,91.12
2017-10-22T14:07:20.260Z,91.6
2017-10-22T14:08:20.234Z,91.31
2017-10-22T14:09:20.205Z,90.83
2017-10-22T14:10:20.186Z,90.93
2017-10-22T14:11:20.164Z,91.31
2017-10-22T14:12:20.143Z,91.21
2017-10-22T14:13:20.127Z,91.02
2017-10-22T14:14:20.101Z,91.02
2017-10-22T14:15:20.077Z,91.12
2017-10-22T14:16:20.061Z,91.31
2017-10-22T14:17:20.026Z,90.93
2017-10-22T14:18:20.007Z,91.5
2017-10-22T14:19:19.998Z,91.5
2017-10-22T14:20:19.962Z,91.6
2017-10-22T14:21:19.933Z,91.6
2017-10-22T14:22:19.916Z,91.21
2017-10-22T14:23:19.895Z,91.41
2017-10-22T14:24:19.876Z,91.5
2017-10-22T14:25:19.849Z,91.6
2017-10-22T14:26:19.844Z,91.6
2017-10-22T14:27:19.488Z,91.41
2017-10-22T14:28:19.779Z,91.21
2017-10-22T14:29:19.754Z,91.31
2017-10-22T14:30:19.742Z,91.31
2017-10-22T14:31:19.396Z,91.41
2017-10-22T14:32:19.697Z,91.41
2017-10-22T14:33:19.669Z,91.31
2017-10-22T14:34:19.644Z,91.31
2017-10-22T14:35:19.618Z,91.21
2017-10-22T14:36:19.600Z,91.41
2017-10-22T14:37:19.582Z,91.41
2017-10-22T14:38:19.562Z,91.31
2017-10-22T14:39:19.216Z,91.5
2017-10-22T14:40:19.191Z,91.21
2017-10-22T14:41:19.171Z,91.41
2017-10-22T14:42:19.152Z,91.21
2017-10-22T14:43:19.132Z,91.21
2017-10-22T14:44:19.112Z,91.78
2017-10-22T14:45:19.082Z,91.41
2017-10-22T14:46:19.069Z,91.88
2017-10-22T14:47:19.043Z,91.98
2017-10-22T14:48:19.016Z,91.6
2017-10-22T14:49:18.991Z,91.5
2017-10-22T14:50:19.290Z,91.88
2017-10-22T14:51:19.262Z,91.78
2017-10-22T14:52:19.242Z,91.74
2017-10-22T14:53:19.215Z,92.07
2017-10-22T14:54:19.197Z,92.03
2017-10-22T14:55:19.176Z,91.6
2017-10-22T14:56:19.159Z,91.74
2017-10-22T14:57:18.809Z,91.6
2017-10-22T14:58:19.107Z,91.64
2017-10-22T14:59:19.091Z,92.03
2017-10-22T15:00:19.071Z,91.74
2017-10-22T15:01:18.715Z,91.98
2017-10-22T15:02:18.696Z,92.12
2017-10-22T15:03:18.990Z,92.03
2017-10-22T15:04:18.968Z,91.74
2017-10-22T15:05:18.946Z,91.83
2017-10-22T15:06:18.955Z,92.12
2017-10-22T15:07:18.900Z,91.83
2017-10-22T15:08:18.876Z,91.74
2017-10-22T15:09:18.858Z,92.03
2017-10-22T15:10:18.855Z,91.93
2017-10-22T15:11:18.812Z,91.93
2017-10-22T15:12:18.798Z,91.83
2017-10-22T15:13:18.767Z,91.83
2017-10-22T15:14:18.741Z,91.74
2017-10-22T15:15:18.722Z,92.03
2017-10-22T15:16:18.697Z,91.93
2017-10-22T15:17:18.674Z,91.83
2017-10-22T15:18:18.646Z,91.83
2017-10-22T15:19:18.623Z,91.83
2017-10-22T15:20:18.597Z,92.03
2017-10-22T15:21:18.584Z,92.22
2017-10-22T15:22:18.239Z,92.22
2017-10-22T15:23:18.541Z,91.83
2017-10-22T15:24:18.520Z,92.03
2017-10-22T15:25:18.169Z,92.41
2017-10-22T15:26:18.459Z,92.32
2017-10-22T15:27:18.440Z,92.69
2017-10-22T15:28:18.480Z,92.03
2017-10-22T15:29:18.401Z,92.12
2017-10-22T15:30:18.374Z,92.03
2017-10-22T15:31:18.362Z,92.22
2017-10-22T15:32:18.334Z,92.32
2017-10-22T15:33:17.987Z,92.32
2017-10-22T15:36:18.238Z,92.17
2017-10-22T15:37:18.221Z,92.12
2017-10-22T15:38:18.191Z,92.17
2017-10-22T15:39:18.167Z,92.08
2017-10-22T15:40:18.155Z,92.08
2017-10-22T15:41:18.121Z,91.98
2017-10-22T15:42:18.103Z,92.08
2017-10-22T15:43:18.069Z,91.98
2017-10-22T15:44:18.048Z,92.17
2017-10-22T15:45:17.715Z,92.17
2017-10-22T15:46:18.006Z,91.98
2017-10-22T15:47:17.981Z,92.17
2017-10-22T15:48:17.638Z,92.17
2017-10-22T15:49:17.623Z,92.36
2017-10-22T15:50:17.918Z,91.88
2017-10-22T15:51:17.893Z,92.27
2017-10-22T15:52:17.872Z,92.17
2017-10-22T15:53:17.528Z,92.17
2017-10-22T15:54:17.828Z,91.98
2017-10-22T15:55:17.802Z,91.88
2017-10-22T15:56:17.780Z,91.98
2017-10-22T15:57:17.765Z,91.98
2017-10-22T15:58:17.734Z,92.17